Terminal Aerodrome Forecast
Issued by NWS Cleveland, OH

Home | Current Version | Previous Version | Text Only | Print | Product List | Glossary Off
Versions: 1 2 3 4 5 6 7 8 9 10 11 12 13 14 15 16 17 18 19 20 21 22 23 24

000
FTUS41 KCLE 221724
TAFCAK
TAF
KCAK 221724Z 2218/2318 03011KT P6SM BKN015 OVC040
     FM222200 07010KT P6SM BKN015
     FM230600 10006KT P6SM OVC007
     FM231000 13008KT 6SM -RA OVC007
     FM231200 14008KT 5SM -RA OVC003=

USA.gov is the U.S. government's official web portal to all federal, state and local government web resources and services.